Burkeville, Texas
Current Conditions -  °F | °C
As of 3:35 PM on Wednesday 26 Nov 2014 (Local Time) from KJAS Reporting Station
Clear Clear  
Wind Chill: 21°   Ceiling: Unl
Heat Index: 21°   Visibility: 10mi
Dew Point:   Wind: 9mph
Humidity: 28%   Direction: 250°WSW
Pressure: 30.18"   Gusts: NA
Location:  31°N, 93.67°W
Report Text: KJAS 262135Z AUTO 25008KT 10SM CLR 21/01 A3018 RMK AO2 T02070013
Loading
Personal Weather Stations






























Interactive Weather Map New forecast layout! Learn more

10-Day Weather Forecast

Advertisements
Track Severe Weather on mobile